Time;durP1;ratioP1;P1;durP2;ratioP2;P2;SDS_P1;SDS_P2;PMS_P1;PMS_P2;Temp;Humidity;BMP_temperature;BMP_pressure;BME280_temperature;BME280_humidity;BME280_pressure;Samples;Min_cycle;Max_cycle;Signal;HPM_P1;HPM_P2
2023/02/07 00:01:28;;;;;;;43.23;22.17;;;3.10;99.90;;;;;;5099633;28;20442;-85
2023/02/07 00:03:57;;;;;;;39.57;20.20;;;3.00;99.90;;;;;;5087714;28;20492;-83
2023/02/07 00:06:26;;;;;;;37.13;20.10;;;3.00;99.90;;;;;;5099864;28;20506;-84
2023/02/07 00:08:55;;;;;;;39.67;20.70;;;3.00;99.90;;;;;;5100063;28;20506;-85
2023/02/07 00:11:23;;;;;;;46.60;26.55;;;3.10;99.90;;;;;;5098529;28;20904;-81
2023/02/07 00:13:55;;;;;;;39.70;20.77;;;3.20;99.90;;;;;;5100875;28;20209;-84
2023/02/07 00:16:24;;;;;;;35.50;19.60;;;3.10;99.90;;;;;;5100183;28;20517;-80
2023/02/07 00:18:54;;;;;;;34.37;20.33;;;3.00;99.90;;;;;;5100347;28;20446;-86
2023/02/07 00:21:23;;;;;;;39.73;19.87;;;2.90;99.90;;;;;;5099621;28;20441;-85
2023/02/07 00:23:51;;;;;;;36.33;19.83;;;2.90;99.90;;;;;;5096413;28;20827;-86
2023/02/07 00:26:26;;;;;;;35.13;19.03;;;2.80;99.90;;;;;;5097770;28;20445;-84
2023/02/07 00:29:02;;;;;;;44.27;20.13;;;2.80;99.90;;;;;;5098165;28;20429;-84
2023/02/07 00:31:30;;;;;;;36.77;18.77;;;2.70;99.90;;;;;;5096860;28;20441;-82
2023/02/07 00:33:59;;;;;;;29.00;17.97;;;2.60;99.90;;;;;;5094783;28;20449;-80
2023/02/07 00:36:28;;;;;;;41.17;19.23;;;2.50;99.90;;;;;;5093969;28;20440;-82
2023/02/07 00:38:56;;;;;;;36.63;19.63;;;2.60;99.90;;;;;;5093626;28;21034;-83
2023/02/07 00:41:24;;;;;;;39.70;18.17;;;2.60;99.90;;;;;;5093929;28;20462;-81
2023/02/07 00:43:51;;;;;;;35.57;18.63;;;2.50;99.90;;;;;;5093773;28;20570;-80
2023/02/07 00:46:21;;;;;;;33.50;19.77;;;2.60;99.90;;;;;;5096675;28;20424;-82
2023/02/07 00:48:51;;;;;;;36.03;18.77;;;2.60;99.90;;;;;;5099147;28;20441;-82
2023/02/07 00:51:18;;;;;;;41.23;18.50;;;2.50;99.90;;;;;;5098762;28;20438;-83
2023/02/07 00:53:46;;;;;;;36.47;18.30;;;2.50;99.90;;;;;;5098227;28;20461;-84
2023/02/07 00:56:15;;;;;;;27.93;17.83;;;2.40;99.90;;;;;;5098515;28;20439;-84
2023/02/07 00:58:42;;;;;;;27.97;16.43;;;2.30;99.90;;;;;;5098580;28;20473;-83
2023/02/07 01:01:09;;;;;;;37.90;17.67;;;2.30;99.90;;;;;;5098086;28;20456;-85
2023/02/07 01:03:38;;;;;;;37.37;17.60;;;2.40;99.90;;;;;;5098015;28;20481;-84
2023/02/07 01:06:05;;;;;;;41.50;19.23;;;2.40;99.90;;;;;;5098392;28;20458;-83
2023/02/07 01:08:32;;;;;;;35.93;17.83;;;2.30;99.90;;;;;;5098622;28;20446;-83
2023/02/07 01:11:03;;;;;;;33.87;17.63;;;2.30;99.90;;;;;;5098340;28;20452;-83
2023/02/07 01:13:30;;;;;;;34.47;16.57;;;2.30;99.90;;;;;;5098292;28;20449;-86
2023/02/07 01:15:58;;;;;;;38.23;16.97;;;2.20;99.90;;;;;;5097928;28;20448;-86
2023/02/07 01:18:27;;;;;;;42.13;17.40;;;2.30;99.90;;;;;;5097940;28;20935;-87
2023/02/07 01:20:56;;;;;;;31.30;16.67;;;2.30;99.90;;;;;;5097720;28;20945;-85
2023/02/07 01:23:25;;;;;;;36.00;16.00;;;2.30;99.90;;;;;;5097218;28;20485;-87
2023/02/07 01:25:53;;;;;;;41.83;17.20;;;2.30;99.90;;;;;;5096741;28;20440;-86
2023/02/07 01:28:26;;;;;;;43.43;18.33;;;2.30;99.90;;;;;;5096813;28;20513;-86
2023/02/07 01:30:54;;;;;;;38.40;16.43;;;2.30;99.90;;;;;;5097534;28;20426;-84
2023/02/07 01:33:29;;;;;;;38.13;16.80;;;2.20;99.90;;;;;;5097959;28;20440;-86
2023/02/07 01:35:59;;;;;;;29.60;16.10;;;2.20;99.90;;;;;;5097088;28;20513;-85
2023/02/07 01:38:27;;;;;;;34.73;16.87;;;2.20;99.90;;;;;;5096457;28;20441;-85
2023/02/07 01:40:53;;;;;;;36.93;16.07;;;2.20;99.90;;;;;;5097111;28;20441;-84
2023/02/07 01:43:24;;;;;;;40.23;17.07;;;2.20;99.90;;;;;;5097016;28;20489;-84
2023/02/07 01:45:52;;;;;;;31.53;16.77;;;2.20;99.90;;;;;;5096510;28;20448;-83
2023/02/07 01:48:24;;;;;;;37.10;16.73;;;2.20;99.90;;;;;;5096990;28;20442;-83
2023/02/07 01:50:59;;;;;;;41.67;18.03;;;2.20;99.90;;;;;;5096033;28;20445;-85
2023/02/07 01:53:29;;;;;;;37.90;18.17;;;2.20;99.90;;;;;;5097048;28;20472;-84
2023/02/07 01:56:02;;;;;;;46.50;19.70;;;2.20;99.90;;;;;;5095865;28;20452;-84
2023/02/07 01:58:31;;;;;;;58.47;28.83;;;2.40;99.90;;;;;;5094247;28;20509;-85
2023/02/07 02:01:00;;;;;;;45.03;21.63;;;2.50;99.90;;;;;;5097172;28;20731;-85
2023/02/07 02:03:27;;;;;;;44.27;19.77;;;2.50;99.90;;;;;;5097446;28;20482;-78
2023/02/07 02:05:56;;;;;;;43.60;20.30;;;2.40;99.90;;;;;;5096880;28;20434;-83
2023/02/07 02:08:24;;;;;;;42.90;20.10;;;2.30;99.90;;;;;;5097062;28;20446;-84
2023/02/07 02:11:00;;;;;;;46.20;19.73;;;2.30;99.90;;;;;;5097281;28;20452;-82
2023/02/07 02:13:35;;;;;;;39.70;18.97;;;2.30;99.90;;;;;;5097079;28;20457;-87
2023/02/07 02:16:13;;;;;;;33.40;18.87;;;2.20;99.90;;;;;;5096416;28;20450;-82
2023/02/07 02:19:07;;;;;;;45.43;18.90;;;2.20;99.90;;;;;;5097336;28;20437;-80
2023/02/07 02:22:11;;;;;;;35.40;18.93;;;2.10;99.90;;;;;;5096546;28;20921;-82
2023/02/07 02:25:23;;;;;;;43.87;19.43;;;2.00;99.90;;;;;;5085970;28;20581;-85
2023/02/07 02:28:18;;;;;;;52.93;28.70;;;2.10;99.90;;;;;;5094018;28;20781;-86
2023/02/07 02:31:09;;;;;;;42.47;21.23;;;2.40;99.90;;;;;;5095526;28;20201;-85
2023/02/07 02:33:48;;;;;;;40.47;19.13;;;2.30;99.90;;;;;;5095733;28;20460;-86
2023/02/07 02:36:26;;;;;;;44.40;20.87;;;2.20;99.90;;;;;;5095196;28;20943;-86
2023/02/07 02:39:02;;;;;;;42.40;19.67;;;2.20;99.90;;;;;;5095408;28;20792;-84
2023/02/07 02:41:37;;;;;;;39.87;19.73;;;2.10;99.90;;;;;;5094645;28;20545;-85
2023/02/07 02:44:10;;;;;;;39.73;18.63;;;2.10;99.90;;;;;;5095862;28;20816;-82
2023/02/07 02:46:40;;;;;;;39.13;18.37;;;2.00;99.90;;;;;;5094976;28;20430;-84
2023/02/07 02:49:11;;;;;;;43.50;18.73;;;2.00;99.90;;;;;;5094742;28;20442;-86
2023/02/07 02:51:40;;;;;;;36.80;16.53;;;2.00;99.90;;;;;;5095374;28;20445;-84
2023/02/07 02:54:26;;;;;;;38.17;17.97;;;2.00;99.90;;;;;;5094820;28;20465;-85
2023/02/07 02:57:06;;;;;;;36.83;17.53;;;2.00;99.90;;;;;;5094920;28;20920;-81
2023/02/07 02:59:55;;;;;;;32.07;17.93;;;2.00;99.90;;;;;;5094784;28;20460;-85
2023/02/07 03:02:27;;;;;;;41.40;18.13;;;2.00;99.90;;;;;;5094657;28;20407;-85
2023/02/07 03:05:17;;;;;;;37.57;18.10;;;1.90;99.90;;;;;;5076283;28;20485;-81
2023/02/07 03:07:55;;;;;;;41.47;18.10;;;1.90;99.90;;;;;;5074295;28;20449;-83
2023/02/07 03:10:31;;;;;;;49.00;18.77;;;1.80;99.90;;;;;;5074503;28;20431;-86
2023/02/07 03:13:10;;;;;;;41.97;19.17;;;1.90;99.90;;;;;;5074634;28;20438;-84
2023/02/07 03:15:50;;;;;;;47.87;21.40;;;1.90;99.90;;;;;;5074236;28;20450;-84
2023/02/07 03:18:21;;;;;;;49.80;20.00;;;1.90;99.90;;;;;;5073900;28;20441;-83
2023/02/07 03:21:00;;;;;;;48.07;20.90;;;1.90;99.90;;;;;;5074554;28;20442;-84
2023/02/07 03:23:30;;;;;;;57.60;21.83;;;1.90;99.90;;;;;;5074206;28;20943;-86
2023/02/07 03:26:00;;;;;;;46.73;20.33;;;2.00;99.90;;;;;;5074190;28;20450;-86
2023/02/07 03:28:30;;;;;;;51.27;20.97;;;2.00;99.90;;;;;;5074011;28;20442;-82
2023/02/07 03:31:02;;;;;;;48.07;20.90;;;2.00;99.90;;;;;;5074116;28;20447;-82
2023/02/07 03:33:31;;;;;;;56.33;20.73;;;2.00;99.90;;;;;;5073945;28;20806;-85
2023/02/07 03:36:07;;;;;;;44.37;21.20;;;2.00;99.90;;;;;;5074021;28;20438;-86
2023/02/07 03:38:36;;;;;;;47.20;20.17;;;2.00;99.90;;;;;;5074498;28;20541;-86
2023/02/07 03:41:08;;;;;;;45.73;20.20;;;1.90;99.90;;;;;;5073672;28;20461;-82
2023/02/07 03:43:39;;;;;;;46.47;20.60;;;1.90;99.90;;;;;;5075626;28;20961;-83
2023/02/07 03:46:08;;;;;;;50.77;20.40;;;1.90;99.90;;;;;;5090022;28;20452;-85
2023/02/07 03:48:36;;;;;;;74.20;34.70;;;1.90;99.90;;;;;;5092448;28;20430;-85
2023/02/07 03:51:08;;;;;;;60.67;25.23;;;1.90;99.90;;;;;;5094075;28;20236;-86
2023/02/07 03:53:36;;;;;;;50.53;23.40;;;1.90;99.90;;;;;;5094349;28;20469;-83
2023/02/07 03:56:03;;;;;;;51.77;23.00;;;1.90;99.90;;;;;;5094695;28;20438;-84
2023/02/07 03:58:30;;;;;;;54.47;22.63;;;1.90;99.90;;;;;;5094345;28;20452;-87
2023/02/07 04:00:57;;;;;;;51.13;22.87;;;1.90;99.90;;;;;;5094415;28;20457;-85
2023/02/07 04:03:25;;;;;;;55.33;24.83;;;1.90;99.90;;;;;;5094271;28;20509;-86
2023/02/07 04:05:52;;;;;;;53.70;24.17;;;2.00;99.90;;;;;;5094177;28;20446;-85
2023/02/07 04:08:21;;;;;;;55.60;23.13;;;2.00;99.90;;;;;;5094318;28;20434;-86
2023/02/07 04:10:57;;;;;;;56.20;22.47;;;1.90;99.90;;;;;;5093765;28;20518;-87
2023/02/07 04:13:25;;;;;;;47.83;21.10;;;1.90;99.90;;;;;;5094098;28;20437;-87
2023/02/07 04:15:52;;;;;;;69.50;34.58;;;1.90;99.90;;;;;;5092005;28;20430;-84
2023/02/07 04:18:20;;;;;;;57.20;25.77;;;2.00;99.90;;;;;;5093608;28;20664;-85
2023/02/07 04:20:49;;;;;;;51.80;21.87;;;1.90;99.90;;;;;;5093879;28;20834;-84
2023/02/07 04:23:17;;;;;;;54.13;23.10;;;1.90;99.90;;;;;;5097667;28;20889;-80
2023/02/07 04:25:46;;;;;;;51.90;21.50;;;1.90;99.90;;;;;;5097410;28;20489;-83
2023/02/07 04:28:19;;;;;;;51.07;22.27;;;1.90;99.90;;;;;;5098126;28;20916;-83
2023/02/07 04:30:47;;;;;;;50.33;22.13;;;1.90;99.90;;;;;;5097322;28;20433;-84
2023/02/07 04:33:16;;;;;;;58.27;21.87;;;1.90;99.90;;;;;;5098132;28;20521;-85
2023/02/07 04:35:43;;;;;;;54.10;22.93;;;1.90;99.90;;;;;;5098460;28;20520;-83
2023/02/07 04:38:11;;;;;;;58.53;23.47;;;1.80;99.90;;;;;;5097762;28;20485;-81
2023/02/07 04:40:39;;;;;;;79.20;24.80;;;1.90;99.90;;;;;;5097911;28;20890;-82
2023/02/07 04:43:13;;;;;;;87.70;26.73;;;2.10;99.90;;;;;;5098117;28;20793;-85
2023/02/07 04:45:41;;;;;;;85.17;26.50;;;2.10;99.90;;;;;;5097727;28;20483;-84
2023/02/07 04:48:09;;;;;;;78.03;24.87;;;2.00;99.90;;;;;;5097799;28;20456;-84
2023/02/07 04:50:36;;;;;;;63.67;25.07;;;1.90;99.90;;;;;;5097713;28;20440;-83
2023/02/07 04:53:03;;;;;;;86.60;24.87;;;2.00;99.90;;;;;;5097667;28;20480;-88
2023/02/07 04:55:30;;;;;;;80.90;25.27;;;1.60;99.90;;;;;;5097374;28;20449;-84
2023/02/07 04:57:59;;;;;;;119.07;28.00;;;1.70;99.90;;;;;;5096990;28;20441;-85
2023/02/07 05:00:27;;;;;;;136.90;27.07;;;1.80;99.90;;;;;;5097084;28;20445;-87
2023/02/07 05:02:58;;;;;;;84.00;25.60;;;1.50;99.90;;;;;;5096921;28;20437;-84
2023/02/07 05:05:27;;;;;;;100.33;25.23;;;1.50;99.90;;;;;;5096841;28;20481;-81
2023/02/07 05:07:55;;;;;;;108.67;27.03;;;1.40;99.90;;;;;;5097010;28;20512;-86
2023/02/07 05:10:28;;;;;;;169.57;37.08;;;1.30;99.90;;;;;;5096744;28;20893;-83
2023/02/07 05:12:57;;;;;;;145.83;30.93;;;1.20;99.90;;;;;;5096312;28;20211;-83
2023/02/07 05:15:24;;;;;;;161.70;31.43;;;1.20;99.90;;;;;;5095890;28;20453;-83
2023/02/07 05:17:52;;;;;;;165.57;33.27;;;1.20;99.90;;;;;;5095970;28;20449;-83
2023/02/07 05:20:20;;;;;;;121.83;31.07;;;1.40;99.90;;;;;;5095915;28;20486;-81
2023/02/07 05:22:46;;;;;;;249.27;37.80;;;1.60;99.90;;;;;;5095673;28;20959;-79
2023/02/07 05:25:15;;;;;;;108.00;29.40;;;1.60;99.90;;;;;;5094949;28;20497;-79
2023/02/07 05:27:42;;;;;;;212.50;36.30;;;1.50;99.90;;;;;;5095556;28;20445;-81
2023/02/07 05:30:10;;;;;;;124.47;29.67;;;1.60;99.90;;;;;;5095440;28;20456;-84
2023/02/07 05:35:25;;;;;;;112.10;27.93;;;1.60;99.90;;;;;;5096413;28;20421;-83
2023/02/07 05:37:52;;;;;;;91.38;32.65;;;1.40;99.90;;;;;;5096552;28;20801;-84
2023/02/07 05:40:19;;;;;;;148.60;26.30;;;1.40;99.90;;;;;;5096617;28;20648;-83
2023/02/07 05:42:46;;;;;;;122.93;23.57;;;1.30;99.90;;;;;;5095886;28;20448;-84
2023/02/07 05:45:13;;;;;;;60.57;23.17;;;1.30;99.90;;;;;;5096172;28;20477;-84
2023/02/07 05:47:40;;;;;;;62.73;21.57;;;1.20;99.90;;;;;;5095722;28;20457;-84
2023/02/07 05:50:08;;;;;;;80.37;22.47;;;1.10;99.90;;;;;;5095472;28;20437;-83
2023/02/07 05:52:37;;;;;;;80.47;22.43;;;0.90;99.90;;;;;;5095869;28;20823;-83
2023/02/07 05:55:05;;;;;;;72.73;21.70;;;0.90;99.90;;;;;;5095600;28;20481;-84
2023/02/07 05:57:31;;;;;;;109.37;23.63;;;1.10;99.90;;;;;;5095359;28;20963;-85
2023/02/07 05:59:59;;;;;;;69.97;24.77;;;1.10;99.90;;;;;;5097150;28;20525;-82
2023/02/07 06:02:25;;;;;;;67.67;23.57;;;1.10;99.90;;;;;;5078689;28;20524;-83
2023/02/07 06:04:52;;;;;;;76.40;25.50;;;1.20;99.90;;;;;;5084176;28;20492;-83
2023/02/07 06:07:19;;;;;;;52.27;23.10;;;1.30;99.90;;;;;;5096133;28;20448;-80
2023/02/07 06:09:48;;;;;;;54.07;23.53;;;1.40;99.90;;;;;;5094781;28;20541;-82
2023/02/07 06:12:16;;;;;;;63.10;24.80;;;1.50;99.90;;;;;;5082647;28;20460;-87
2023/02/07 06:14:43;;;;;;;66.63;22.93;;;1.60;99.90;;;;;;5096431;28;20904;-84
2023/02/07 06:17:13;;;;;;;66.37;22.83;;;1.40;99.90;;;;;;5082911;28;20533;-88
2023/02/07 06:19:42;;;;;;;54.90;21.77;;;1.60;99.90;;;;;;5083214;28;20812;-86
2023/02/07 06:22:09;;;;;;;63.27;22.13;;;1.60;99.90;;;;;;5095326;28;20448;-87
2023/02/07 06:24:36;;;;;;;53.17;21.30;;;1.70;99.90;;;;;;5095986;28;20497;-83
2023/02/07 06:27:07;;;;;;;49.13;22.33;;;1.80;99.90;;;;;;5081833;28;20453;-86
2023/02/07 06:29:40;;;;;;;39.17;20.63;;;1.70;99.90;;;;;;5095335;28;20446;-85
2023/02/07 06:32:07;;;;;;;44.07;21.07;;;1.70;99.90;;;;;;5095604;28;20464;-85
2023/02/07 06:34:35;;;;;;;47.47;21.47;;;1.80;99.90;;;;;;5092517;28;20446;-86
2023/02/07 06:37:02;;;;;;;63.53;22.40;;;1.90;99.90;;;;;;5085622;28;20450;-84
2023/02/07 06:39:29;;;;;;;62.07;22.77;;;1.60;99.90;;;;;;5092411;28;20442;-83
2023/02/07 06:41:56;;;;;;;57.93;24.90;;;1.50;99.90;;;;;;5085509;28;20453;-84
2023/02/07 06:44:30;;;;;;;46.77;23.70;;;1.30;99.90;;;;;;5095448;28;20453;-86
2023/02/07 06:47:03;;;;;;;57.10;24.07;;;1.40;99.90;;;;;;5095741;28;20452;-87
2023/02/07 06:49:36;;;;;;;65.17;25.27;;;1.30;99.90;;;;;;5095557;28;20797;-84
2023/02/07 06:52:09;;;;;;;59.67;23.73;;;1.50;99.90;;;;;;5095562;28;20442;-85
2023/02/07 06:54:36;;;;;;;55.00;22.87;;;1.70;99.90;;;;;;5094984;28;20512;-87
2023/02/07 06:57:04;;;;;;;56.77;23.47;;;1.70;99.90;;;;;;5095517;28;20496;-89
2023/02/07 06:59:33;;;;;;;41.23;21.03;;;1.70;99.90;;;;;;5095194;28;20498;-89
2023/02/07 07:02:02;;;;;;;54.60;31.15;;;1.80;99.90;;;;;;5094162;28;20442;-86
2023/02/07 07:04:30;;;;;;;51.93;23.77;;;1.90;99.90;;;;;;5095161;28;20296;-84
2023/02/07 07:06:57;;;;;;;65.20;22.27;;;1.60;99.90;;;;;;5094805;28;20452;-87
2023/02/07 07:09:24;;;;;;;74.13;21.47;;;1.50;99.90;;;;;;5085731;28;20921;-82
2023/02/07 07:11:50;;;;;;;40.63;19.77;;;1.10;99.90;;;;;;5087968;28;20448;-88
2023/02/07 07:14:21;;;;;;;55.30;21.90;;;1.20;99.90;;;;;;5083479;28;20442;-86
2023/02/07 07:16:49;;;;;;;62.03;20.13;;;1.20;99.90;;;;;;5091281;28;20461;-86
2023/02/07 07:19:17;;;;;;;69.03;21.53;;;1.30;99.90;;;;;;5084642;28;20462;-84
2023/02/07 07:21:44;;;;;;;46.30;20.57;;;1.20;99.90;;;;;;5093983;28;20446;-84
2023/02/07 07:24:10;;;;;;;70.70;20.43;;;1.10;99.90;;;;;;5093915;28;20454;-81
2023/02/07 07:26:37;;;;;;;60.30;21.00;;;1.20;99.90;;;;;;5093738;28;20516;-82
2023/02/07 07:29:07;;;;;;;82.00;21.70;;;1.10;99.90;;;;;;5093950;28;20470;-85
2023/02/07 07:31:34;;;;;;;67.73;22.27;;;0.70;99.90;;;;;;5094479;28;20452;-88
2023/02/07 07:34:02;;;;;;;58.83;20.53;;;0.70;99.90;;;;;;5094126;28;20456;-84
2023/02/07 07:36:30;;;;;;;42.00;18.07;;;0.40;99.90;;;;;;5094079;28;20453;-83
2023/02/07 07:38:59;;;;;;;73.40;20.73;;;0.20;99.90;;;;;;5093651;28;20940;-87
2023/02/07 07:41:26;;;;;;;51.20;20.37;;;0.50;99.90;;;;;;5086963;28;20463;-88
2023/02/07 07:43:55;;;;;;;55.20;21.83;;;0.80;99.90;;;;;;5085084;28;20450;-86
2023/02/07 07:46:22;;;;;;;80.97;21.87;;;0.90;99.90;;;;;;5076025;28;20470;-87
2023/02/07 07:48:50;;;;;;;63.83;21.93;;;1.00;99.90;;;;;;5083785;28;20453;-88
2023/02/07 07:51:19;;;;;;;61.50;22.07;;;1.10;99.90;;;;;;5081928;28;20534;-85
2023/02/07 07:53:47;;;;;;;54.10;21.30;;;1.20;99.90;;;;;;5079951;28;20464;-81
2023/02/07 07:56:15;;;;;;;66.43;20.90;;;1.20;99.90;;;;;;5078359;28;20441;-88
2023/02/07 07:58:42;;;;;;;61.53;21.33;;;1.30;99.90;;;;;;5093816;28;20811;-86
2023/02/07 08:01:10;;;;;;;52.43;21.77;;;1.30;99.90;;;;;;5093417;28;20521;-86
2023/02/07 08:03:37;;;;;;;37.47;19.87;;;1.40;99.90;;;;;;5093772;28;20442;-88
2023/02/07 08:06:07;;;;;;;58.97;18.97;;;1.50;99.90;;;;;;5093813;28;20496;-88
2023/02/07 08:08:37;;;;;;;70.37;19.17;;;1.50;99.90;;;;;;5091420;28;20464;-90
2023/02/07 08:11:10;;;;;;;59.20;19.67;;;1.50;99.90;;;;;;5083234;28;20437;-87
2023/02/07 08:13:38;;;;;;;57.27;18.67;;;1.50;99.90;;;;;;5093879;28;20442;-88
2023/02/07 08:16:07;;;;;;;64.10;20.53;;;1.40;99.90;;;;;;5093907;28;20450;-87
2023/02/07 08:18:34;;;;;;;65.10;21.10;;;1.50;99.90;;;;;;5088924;28;20551;-89
2023/02/07 08:21:02;;;;;;;46.20;18.27;;;1.40;99.90;;;;;;5084815;28;20507;-81
2023/02/07 08:23:29;;;;;;;42.40;19.00;;;1.40;99.90;;;;;;5091480;28;20453;-89
2023/02/07 08:25:57;;;;;;;54.57;19.73;;;1.50;99.90;;;;;;5080591;28;20486;-86
2023/02/07 08:28:25;;;;;;;43.73;19.10;;;1.50;99.90;;;;;;5073291;28;20446;-85
2023/02/07 08:30:52;;;;;;;60.90;18.83;;;0.90;99.90;;;;;;5085949;28;20448;-84
2023/02/07 08:33:19;;;;;;;51.43;19.23;;;1.00;99.90;;;;;;5093292;28;20438;-85
2023/02/07 08:35:45;;;;;;;43.00;18.73;;;0.80;99.90;;;;;;5092633;28;20464;-83
2023/02/07 08:38:13;;;;;;;38.13;17.80;;;0.50;99.90;;;;;;5092352;28;20437;-82
2023/02/07 08:40:40;;;;;;;60.10;18.40;;;0.80;99.90;;;;;;5092660;28;20457;-81
2023/02/07 08:43:11;;;;;;;58.30;18.67;;;0.40;99.90;;;;;;5089011;28;20446;-86
2023/02/07 08:45:38;;;;;;;49.83;19.60;;;0.70;99.90;;;;;;5083118;28;20984;-82
2023/02/07 08:48:05;;;;;;;45.83;18.03;;;0.90;99.90;;;;;;5092527;28;20529;-83
2023/02/07 08:50:33;;;;;;;42.37;18.47;;;1.10;99.90;;;;;;5092875;28;20453;-81
2023/02/07 08:53:00;;;;;;;39.73;18.40;;;1.10;99.90;;;;;;5092669;28;20445;-83
2023/02/07 08:55:27;;;;;;;40.80;20.70;;;1.20;99.90;;;;;;5093315;28;20446;-82
2023/02/07 08:57:54;;;;;;;29.53;18.17;;;1.10;99.90;;;;;;5093421;28;20466;-82
2023/02/07 09:00:23;;;;;;;32.67;19.27;;;1.20;99.90;;;;;;5092741;28;20924;-82
2023/02/07 09:02:49;;;;;;;32.93;18.07;;;1.30;99.90;;;;;;5092468;28;20445;-81
2023/02/07 09:05:16;;;;;;;34.23;17.53;;;1.30;99.90;;;;;;5092208;28;20999;-86
2023/02/07 09:07:44;;;;;;;43.30;18.53;;;1.50;99.90;;;;;;5087768;28;20454;-84
2023/02/07 09:10:11;;;;;;;37.80;18.53;;;1.30;99.90;;;;;;5091125;28;20530;-80
2023/02/07 09:12:38;;;;;;;41.33;19.30;;;1.00;99.90;;;;;;5095886;28;20474;-82
2023/02/07 09:15:06;;;;;;;37.13;18.67;;;1.20;99.90;;;;;;5089672;28;20450;-84
2023/02/07 09:17:36;;;;;;;32.83;17.80;;;1.40;99.90;;;;;;5092235;28;20743;-84
2023/02/07 09:20:04;;;;;;;39.70;22.63;;;1.60;99.90;;;;;;5091663;28;20434;-81
2023/02/07 09:23:16;;;;;;;38.37;19.37;;;1.80;99.90;;;;;;5099077;28;20211;-84
2023/02/07 09:25:22;;;;;;;34.63;19.37;;;1.70;99.90;;;;;;5089823;28;20438;-84
2023/02/07 09:27:55;;;;;;;31.37;18.97;;;1.60;99.90;;;;;;5101472;28;20453;-86
2023/02/07 09:30:22;;;;;;;39.73;19.13;;;1.10;99.90;;;;;;5102086;28;20453;-86
2023/02/07 09:32:50;;;;;;;34.50;19.07;;;1.10;99.90;;;;;;5093459;28;20477;-77
2023/02/07 09:35:17;;;;;;;32.73;18.67;;;0.90;99.90;;;;;;5088251;28;20465;-81
2023/02/07 09:37:46;;;;;;;31.50;17.80;;;1.20;99.90;;;;;;5095472;28;20448;-82
2023/02/07 09:40:17;;;;;;;34.77;19.20;;;1.10;99.90;;;;;;5095757;28;20445;-88
2023/02/07 09:42:55;;;;;;;32.47;17.27;;;1.00;99.90;;;;;;5096171;28;20446;-80
2023/02/07 09:45:26;;;;;;;28.47;17.63;;;0.70;99.90;;;;;;5082275;28;21059;-88
2023/02/07 09:48:05;;;;;;;28.80;15.90;;;0.90;99.90;;;;;;5095942;28;20558;-86
2023/02/07 09:50:38;;;;;;;27.63;16.87;;;1.10;99.90;;;;;;5095728;28;20434;-80
2023/02/07 09:53:15;;;;;;;28.33;17.37;;;1.40;99.90;;;;;;5096212;28;20449;-87
2023/02/07 09:55:47;;;;;;;25.43;16.27;;;1.20;99.90;;;;;;5096395;28;20453;-82
2023/02/07 09:58:17;;;;;;;27.63;16.77;;;1.50;99.90;;;;;;5096825;28;20445;-83
2023/02/07 10:01:04;;;;;;;26.53;17.30;;;1.80;99.90;;;;;;5096572;28;20461;-87
2023/02/07 10:03:38;;;;;;;27.63;17.03;;;1.70;99.90;;;;;;5096343;28;20444;-90
2023/02/07 10:06:13;;;;;;;29.13;16.67;;;1.70;99.90;;;;;;5096276;28;20485;-77
2023/02/07 10:08:40;;;;;;;27.90;17.60;;;1.80;99.90;;;;;;5097701;28;20536;-90
2023/02/07 10:11:18;;;;;;;28.23;17.33;;;1.90;99.90;;;;;;5101790;28;20537;-91
2023/02/07 10:13:59;;;;;;;26.00;16.43;;;1.90;99.90;;;;;;5084695;28;20442;-90
2023/02/07 10:16:47;;;;;;;26.60;16.70;;;1.90;99.90;;;;;;5094355;28;20445;-87
2023/02/07 10:19:26;;;;;;;30.50;17.10;;;1.70;99.90;;;;;;5090126;28;20445;-91
2023/02/07 10:22:08;;;;;;;25.20;16.33;;;1.50;99.90;;;;;;5089884;28;20968;-87
2023/02/07 10:24:59;;;;;;;27.73;16.67;;;1.80;99.90;;;;;;5094248;28;20446;-76
2023/02/07 10:27:31;;;;;;;27.87;16.63;;;1.80;99.90;;;;;;5099228;28;20576;-89
2023/02/07 10:30:09;;;;;;;25.83;17.70;;;2.00;99.90;;;;;;5084123;28;20449;-75
2023/02/07 10:32:41;;;;;;;30.23;18.83;;;2.00;99.90;;;;;;5082754;28;20507;-89
2023/02/07 10:35:18;;;;;;;28.10;19.10;;;1.90;99.90;;;;;;5096444;28;20514;-75
2023/02/07 10:37:48;;;;;;;31.83;18.47;;;2.00;99.90;;;;;;5091274;28;20455;-91
2023/02/07 10:40:19;;;;;;;31.30;17.90;;;2.30;99.90;;;;;;5089907;28;21017;-75
2023/02/07 10:42:51;;;;;;;30.70;17.57;;;2.40;99.90;;;;;;5091242;28;20446;-91
2023/02/07 10:45:19;;;;;;;30.87;19.03;;;2.60;99.90;;;;;;5080913;28;20430;-90
2023/02/07 10:47:46;;;;;;;29.60;16.87;;;2.60;99.90;;;;;;5087802;28;20869;-90
2023/02/07 10:50:21;;;;;;;24.80;15.83;;;2.80;99.90;;;;;;5100579;28;20452;-75
2023/02/07 10:52:52;;;;;;;26.77;18.27;;;2.60;99.90;;;;;;5100423;28;20449;-88
2023/02/07 10:55:39;;;;;;;23.40;15.30;;;2.30;99.90;;;;;;5096187;28;20810;-90
2023/02/07 10:58:06;;;;;;;25.70;14.33;;;2.30;99.90;;;;;;5082869;28;20442;-90
2023/02/07 11:00:35;;;;;;;22.67;14.53;;;2.50;99.90;;;;;;5083188;28;20450;-76
2023/02/07 11:03:03;;;;;;;24.57;15.13;;;2.40;99.90;;;;;;5083029;28;20450;-76
2023/02/07 11:05:50;;;;;;;25.20;14.53;;;2.40;99.90;;;;;;5088541;28;20949;-90
2023/02/07 11:08:23;;;;;;;30.57;16.13;;;2.70;99.90;;;;;;5097330;28;20460;-83
2023/02/07 11:10:55;;;;;;;22.40;14.37;;;2.80;99.90;;;;;;5097070;28;20817;-89
2023/02/07 11:13:24;;;;;;;18.90;12.23;;;3.10;99.90;;;;;;5085067;28;20444;-73
2023/02/07 11:15:56;;;;;;;18.93;12.77;;;2.90;99.90;;;;;;5097235;28;20528;-81
2023/02/07 11:18:42;;;;;;;18.23;11.97;;;3.00;99.90;;;;;;5077450;28;20841;-88
2023/02/07 11:21:23;;;;;;;21.07;13.07;;;3.30;99.90;;;;;;5095764;28;20929;-88
2023/02/07 11:23:51;;;;;;;24.33;14.37;;;3.50;99.90;;;;;;5085731;28;20534;-83
2023/02/07 11:26:20;;;;;;;23.30;13.40;;;3.40;99.90;;;;;;5096566;28;20829;-81
2023/02/07 11:29:00;;;;;;;22.30;14.03;;;3.60;99.90;;;;;;5096110;28;20442;-83
2023/02/07 11:31:30;;;;;;;22.83;13.10;;;3.50;99.90;;;;;;5091670;28;20516;-75
2023/02/07 11:34:14;;;;;;;25.97;14.50;;;3.60;99.90;;;;;;5094522;28;20607;-85
2023/02/07 11:36:42;;;;;;;25.63;15.07;;;3.40;99.90;;;;;;5096270;28;20445;-85
2023/02/07 11:39:16;;;;;;;26.10;15.77;;;3.30;99.90;;;;;;5095254;28;20442;-77
2023/02/07 11:41:54;;;;;;;23.33;15.30;;;3.30;99.90;;;;;;5083343;28;20446;-80
2023/02/07 11:44:24;;;;;;;19.77;14.73;;;3.50;99.90;;;;;;5082548;28;20445;-86
2023/02/07 11:46:53;;;;;;;26.60;15.60;;;3.40;99.90;;;;;;5093249;28;21021;-87
2023/02/07 11:49:24;;;;;;;24.15;17.95;;;3.50;99.90;;;;;;5093729;28;20456;-76
2023/02/07 11:51:54;;;;;;;23.67;15.60;;;3.40;99.90;;;;;;5094168;28;20205;-84
2023/02/07 11:54:21;;;;;;;23.20;15.30;;;3.30;99.90;;;;;;5094681;28;20802;-79
2023/02/07 11:56:52;;;;;;;24.80;15.17;;;3.40;99.90;;;;;;5093631;28;20446;-88
2023/02/07 11:59:21;;;;;;;27.23;16.83;;;3.60;99.90;;;;;;5093545;28;20466;-83
2023/02/07 12:01:51;;;;;;;23.93;15.00;;;3.70;99.90;;;;;;5092601;28;20440;-87
2023/02/07 12:04:24;;;;;;;26.87;16.57;;;3.70;99.90;;;;;;5093478;28;20803;-89
2023/02/07 12:06:57;;;;;;;25.10;15.43;;;3.40;99.90;;;;;;5093559;28;20485;-89
2023/02/07 12:09:33;;;;;;;25.17;14.23;;;3.50;99.90;;;;;;5093648;28;20446;-73
2023/02/07 12:12:03;;;;;;;21.70;13.77;;;3.50;99.90;;;;;;5085561;28;20438;-91
2023/02/07 12:14:37;;;;;;;21.73;14.63;;;3.60;99.90;;;;;;5078011;28;20450;-86
2023/02/07 12:17:09;;;;;;;28.30;15.80;;;3.70;99.90;;;;;;5095796;28;20441;-89
2023/02/07 12:19:48;;;;;;;22.50;13.73;;;3.80;99.90;;;;;;5092431;28;20443;-85
2023/02/07 12:22:20;;;;;;;21.60;13.93;;;3.80;99.90;;;;;;5090844;28;20426;-87
2023/02/07 12:24:53;;;;;;;20.40;13.20;;;3.80;99.90;;;;;;5083960;28;20198;-91
2023/02/07 12:27:25;;;;;;;22.83;12.87;;;4.00;99.90;;;;;;5082383;28;20535;-86
2023/02/07 12:30:06;;;;;;;24.20;14.53;;;4.30;99.90;;;;;;5083528;28;20193;-86
2023/02/07 12:32:46;;;;;;;25.07;13.07;;;4.50;99.90;;;;;;5095432;28;20208;-86
2023/02/07 12:35:19;;;;;;;22.57;12.17;;;4.70;99.90;;;;;;5095756;28;20224;-92
2023/02/07 12:37:54;;;;;;;22.38;16.27;;;4.80;99.90;;;;;;5080812;28;20450;-88
2023/02/07 12:40:31;;;;;;;21.27;14.27;;;4.80;99.90;;;;;;5095209;28;20201;-84
2023/02/07 12:43:03;;;;;;;18.77;12.70;;;4.70;99.90;;;;;;5098630;28;20197;-89
2023/02/07 12:45:50;;;;;;;20.00;12.60;;;4.70;99.90;;;;;;5101518;28;20201;-87
2023/02/07 12:48:29;;;;;;;19.80;12.30;;;4.90;99.90;;;;;;5093906;28;20222;-80
2023/02/07 12:51:11;;;;;;;15.63;11.67;;;5.00;99.90;;;;;;5098077;28;20208;-81
2023/02/07 12:54:03;;;;;;;16.93;10.70;;;5.00;99.90;;;;;;5102163;28;20213;-81
2023/02/07 12:56:43;;;;;;;15.90;11.07;;;5.30;99.90;;;;;;5089760;28;20211;-89
2023/02/07 12:59:18;;;;;;;17.00;11.33;;;5.30;99.90;;;;;;5096638;28;20193;-85